Time;durP1;ratioP1;P1;durP2;ratioP2;P2;SDS_P1;SDS_P2;PMS_P1;PMS_P2;Temp;Humidity;BMP_temperature;BMP_pressure;BME280_temperature;BME280_humidity;BME280_pressure;Samples;Min_cycle;Max_cycle;Signal;HPM_P1;HPM_P2
2023/11/20 00:02:09;;;;;;;6.60;3.10;;;11.40;99.90;;;;;;5062063;28;20452;-64
2023/11/20 00:04:37;;;;;;;6.23;3.40;;;11.40;99.90;;;;;;5061153;28;20448;-64
2023/11/20 00:07:05;;;;;;;7.30;2.27;;;11.40;99.90;;;;;;5064174;28;20488;-64
2023/11/20 00:09:32;;;;;;;5.57;2.80;;;11.40;99.90;;;;;;5071648;28;21116;-64
2023/11/20 00:11:59;;;;;;;7.73;2.77;;;11.40;99.90;;;;;;5067725;28;20821;-64
2023/11/20 00:14:26;;;;;;;9.40;2.30;;;11.50;99.90;;;;;;5062850;28;20531;-64
2023/11/20 00:16:53;;;;;;;6.17;2.33;;;11.50;99.90;;;;;;5061384;28;21069;-64
2023/11/20 00:19:20;;;;;;;4.13;2.60;;;11.50;99.90;;;;;;5051680;28;20467;-65
2023/11/20 00:21:48;;;;;;;5.90;2.90;;;11.50;99.90;;;;;;5067177;28;20480;-65
2023/11/20 00:24:15;;;;;;;4.50;2.93;;;11.50;99.90;;;;;;5071547;28;20534;-65
2023/11/20 00:26:42;;;;;;;15.77;4.27;;;11.50;99.90;;;;;;5071411;28;20520;-64
2023/11/20 00:29:09;;;;;;;9.53;3.10;;;11.50;99.90;;;;;;5065598;28;20978;-64
2023/11/20 00:31:36;;;;;;;8.70;3.03;;;11.50;99.90;;;;;;5051648;28;20936;-64
2023/11/20 00:34:03;;;;;;;5.87;2.37;;;11.60;99.90;;;;;;5051588;28;20441;-64
2023/11/20 00:36:30;;;;;;;13.17;2.67;;;11.50;99.90;;;;;;5067135;28;20452;-64
2023/11/20 00:38:59;;;;;;;10.53;2.33;;;11.50;99.90;;;;;;5070085;28;20459;-65
2023/11/20 00:41:27;;;;;;;7.33;3.63;;;11.60;99.90;;;;;;5071679;28;20440;-65
2023/11/20 00:43:54;;;;;;;11.77;2.50;;;11.70;99.90;;;;;;5071626;28;20451;-64
2023/11/20 00:46:20;;;;;;;9.73;3.37;;;11.70;99.90;;;;;;5071227;28;20952;-63
2023/11/20 00:48:47;;;;;;;6.53;2.37;;;11.70;99.90;;;;;;5071256;28;20452;-64
2023/11/20 00:51:15;;;;;;;7.20;2.40;;;11.70;99.90;;;;;;5071339;28;20452;-64
2023/11/20 00:53:42;;;;;;;8.27;2.63;;;11.70;99.90;;;;;;5071350;28;20454;-64
2023/11/20 00:56:10;;;;;;;6.43;2.67;;;11.70;99.90;;;;;;5071095;28;20471;-64
2023/11/20 00:58:37;;;;;;;4.73;3.00;;;11.70;99.90;;;;;;5071360;28;20535;-65
2023/11/20 01:01:05;;;;;;;10.60;2.50;;;11.70;99.90;;;;;;5071053;28;20525;-65
2023/11/20 01:03:32;;;;;;;5.27;2.83;;;11.70;99.90;;;;;;5071145;28;20555;-65
2023/11/20 01:06:00;;;;;;;8.77;2.60;;;11.70;99.90;;;;;;5070967;28;20483;-65
2023/11/20 01:08:26;;;;;;;6.27;3.40;;;11.70;99.90;;;;;;5071344;28;20455;-64
2023/11/20 01:10:53;;;;;;;4.50;2.73;;;11.70;99.90;;;;;;5070989;28;20567;-64
2023/11/20 01:13:21;;;;;;;5.23;2.60;;;11.70;99.90;;;;;;5071275;28;20555;-64
2023/11/20 01:15:48;;;;;;;7.57;2.40;;;11.70;99.90;;;;;;5070992;28;20410;-64
2023/11/20 01:18:15;;;;;;;5.17;3.40;;;11.70;99.90;;;;;;5070885;28;20444;-64
2023/11/20 01:20:44;;;;;;;6.40;2.67;;;11.70;99.90;;;;;;5070972;28;20474;-64
2023/11/20 01:23:11;;;;;;;3.67;1.80;;;11.70;99.90;;;;;;5069207;28;20458;-64
2023/11/20 01:25:37;;;;;;;5.30;3.83;;;11.70;99.90;;;;;;5068743;28;21101;-64
2023/11/20 01:28:05;;;;;;;5.40;3.10;;;11.70;99.90;;;;;;5070907;28;20447;-64
2023/11/20 01:30:33;;;;;;;4.73;2.43;;;11.80;99.90;;;;;;5070794;28;20476;-64
2023/11/20 01:33:01;;;;;;;5.60;2.63;;;11.80;99.90;;;;;;5070810;28;20868;-64
2023/11/20 01:35:27;;;;;;;4.13;2.43;;;11.80;99.90;;;;;;5070841;28;20522;-63
2023/11/20 01:37:54;;;;;;;5.73;2.40;;;11.80;99.90;;;;;;5070648;28;20458;-64
2023/11/20 01:40:21;;;;;;;7.17;3.60;;;11.80;99.90;;;;;;5070760;28;20475;-64
2023/11/20 01:42:48;;;;;;;3.93;2.60;;;11.80;99.90;;;;;;5070853;28;20451;-64
2023/11/20 01:45:15;;;;;;;9.20;3.47;;;11.70;99.90;;;;;;5070909;28;20494;-64
2023/11/20 01:47:46;;;;;;;7.17;2.33;;;11.70;99.90;;;;;;5070204;28;20495;-64
2023/11/20 01:50:14;;;;;;;7.80;2.53;;;11.70;99.90;;;;;;5070746;28;20491;-64
2023/11/20 01:52:44;;;;;;;7.80;2.87;;;11.70;99.90;;;;;;5074363;28;20448;-64
2023/11/20 01:55:13;;;;;;;3.90;2.13;;;11.70;99.90;;;;;;5073963;28;20883;-64
2023/11/20 01:57:43;;;;;;;7.20;2.80;;;11.70;99.90;;;;;;5073313;28;20454;-65
2023/11/20 02:00:12;;;;;;;8.40;2.50;;;11.70;99.90;;;;;;5064819;28;21005;-63
2023/11/20 02:02:41;;;;;;;5.90;2.50;;;11.70;99.90;;;;;;5072711;28;20527;-65
2023/11/20 02:05:09;;;;;;;8.57;2.20;;;11.70;99.90;;;;;;5083803;28;20478;-64
2023/11/20 02:07:37;;;;;;;8.17;2.60;;;11.60;99.90;;;;;;5094223;28;20482;-64
2023/11/20 02:10:05;;;;;;;4.47;2.60;;;11.60;99.90;;;;;;5094626;28;20471;-65
2023/11/20 02:12:32;;;;;;;7.40;3.27;;;11.50;99.90;;;;;;5094495;28;20442;-64
2023/11/20 02:14:59;;;;;;;11.90;4.77;;;11.50;99.90;;;;;;5080735;28;20535;-63
2023/11/20 02:17:26;;;;;;;5.23;2.60;;;11.40;99.90;;;;;;5073824;28;20446;-64
2023/11/20 02:19:53;;;;;;;3.40;2.13;;;11.40;99.90;;;;;;5104132;22;20494;-64
2023/11/20 02:22:21;;;;;;;3.10;2.33;;;11.40;99.90;;;;;;5095167;28;20515;-64
2023/11/20 02:24:48;;;;;;;8.47;3.20;;;11.30;99.90;;;;;;5094775;28;20439;-63
2023/11/20 02:27:33;;;;;;;8.07;2.87;;;11.30;99.90;;;;;;5094346;28;20569;-64
2023/11/20 02:30:04;;;;;;;7.00;2.27;;;11.20;99.90;;;;;;5095252;28;20458;-64
2023/11/20 02:32:31;;;;;;;7.00;3.53;;;11.20;99.90;;;;;;5094745;28;20447;-64
2023/11/20 02:34:58;;;;;;;5.07;2.10;;;11.20;99.90;;;;;;5094902;28;20525;-64
2023/11/20 02:37:27;;;;;;;6.70;2.60;;;11.20;99.90;;;;;;5094680;28;20445;-64
2023/11/20 02:39:54;;;;;;;4.23;2.93;;;11.20;99.90;;;;;;5094553;28;20893;-63
2023/11/20 02:42:21;;;;;;;8.27;2.70;;;11.20;99.90;;;;;;5094726;28;20446;-64
2023/11/20 02:44:47;;;;;;;7.70;2.77;;;11.30;99.90;;;;;;5094601;28;20808;-64
2023/11/20 02:47:16;;;;;;;10.27;2.60;;;11.30;99.90;;;;;;5093969;28;20573;-64
2023/11/20 02:49:43;;;;;;;3.40;2.47;;;11.30;99.90;;;;;;5094453;28;20470;-63
2023/11/20 02:52:10;;;;;;;6.50;2.97;;;11.30;99.90;;;;;;5094417;28;20534;-63
2023/11/20 02:54:37;;;;;;;5.50;2.43;;;11.30;99.90;;;;;;5094013;28;20444;-64
2023/11/20 02:57:05;;;;;;;9.77;3.10;;;11.30;99.90;;;;;;5094164;28;20447;-63
2023/11/20 02:59:32;;;;;;;7.13;3.83;;;11.30;99.90;;;;;;5094311;28;20463;-64
2023/11/20 03:01:59;;;;;;;10.20;2.70;;;11.30;99.90;;;;;;5094011;28;20949;-64
2023/11/20 03:04:27;;;;;;;6.73;3.10;;;11.40;99.90;;;;;;5094234;28;20439;-64
2023/11/20 03:06:54;;;;;;;9.00;2.87;;;11.40;99.90;;;;;;5093579;28;20569;-63
2023/11/20 03:09:22;;;;;;;5.47;3.17;;;11.40;99.90;;;;;;5094129;28;20546;-64
2023/11/20 03:11:49;;;;;;;8.40;2.60;;;11.40;99.90;;;;;;5093972;28;20455;-64
2023/11/20 03:14:16;;;;;;;5.20;2.80;;;11.40;99.90;;;;;;5093984;28;20447;-64
2023/11/20 03:16:43;;;;;;;8.37;2.90;;;11.40;99.90;;;;;;5093411;28;20435;-63
2023/11/20 03:19:10;;;;;;;5.83;2.37;;;11.50;99.90;;;;;;5093744;28;20451;-64
2023/11/20 03:21:41;;;;;;;6.60;3.30;;;11.50;99.90;;;;;;5093631;28;20435;-63
2023/11/20 03:24:08;;;;;;;6.30;2.57;;;11.40;99.90;;;;;;5093929;28;20547;-64
2023/11/20 03:26:35;;;;;;;8.00;2.67;;;11.40;99.90;;;;;;5093545;28;20558;-64
2023/11/20 03:29:03;;;;;;;3.33;1.90;;;11.50;99.90;;;;;;5093592;28;20539;-64
2023/11/20 03:31:34;;;;;;;6.23;2.27;;;11.50;99.90;;;;;;5093389;28;20453;-64
2023/11/20 03:34:01;;;;;;;5.87;2.67;;;11.50;99.90;;;;;;5093472;28;20458;-64
2023/11/20 03:36:30;;;;;;;5.27;2.70;;;11.50;99.90;;;;;;5093416;28;20447;-64
2023/11/20 03:38:58;;;;;;;4.70;2.20;;;11.50;99.90;;;;;;5093342;28;20454;-64
2023/11/20 03:41:26;;;;;;;9.43;3.07;;;11.50;99.90;;;;;;5093528;28;20530;-64
2023/11/20 03:43:53;;;;;;;5.57;2.53;;;11.50;99.90;;;;;;5093728;28;20453;-64
2023/11/20 03:46:20;;;;;;;4.70;2.70;;;11.50;99.90;;;;;;5092990;28;20534;-64
2023/11/20 03:48:47;;;;;;;6.30;2.57;;;11.40;99.90;;;;;;5093166;28;20447;-63
2023/11/20 03:51:16;;;;;;;9.33;2.70;;;11.50;99.90;;;;;;5093231;28;20470;-64
2023/11/20 03:53:44;;;;;;;4.97;2.33;;;11.50;99.90;;;;;;5093402;28;20438;-64
2023/11/20 03:56:12;;;;;;;4.93;2.10;;;11.50;99.90;;;;;;5092831;28;20449;-64
2023/11/20 03:58:40;;;;;;;6.07;3.40;;;11.50;99.90;;;;;;5093001;28;20493;-64
2023/11/20 04:01:07;;;;;;;4.17;2.70;;;11.50;99.90;;;;;;5092828;28;20467;-64
2023/11/20 04:03:33;;;;;;;5.73;2.20;;;11.50;99.90;;;;;;5093248;28;20546;-64
2023/11/20 04:06:00;;;;;;;5.77;2.47;;;11.50;99.90;;;;;;5093048;28;20475;-64
2023/11/20 04:08:27;;;;;;;3.53;2.20;;;11.50;99.90;;;;;;5092767;28;20490;-63
2023/11/20 04:10:54;;;;;;;8.40;2.93;;;11.50;99.90;;;;;;5092939;28;20561;-64
2023/11/20 04:13:22;;;;;;;5.37;2.70;;;11.50;99.90;;;;;;5092464;28;20454;-64
2023/11/20 04:15:49;;;;;;;5.07;2.83;;;11.40;99.90;;;;;;5092366;28;20454;-64
2023/11/20 04:18:16;;;;;;;6.13;2.90;;;11.40;99.90;;;;;;5091386;28;20465;-64
2023/11/20 04:20:44;;;;;;;8.00;2.30;;;11.40;99.90;;;;;;5092099;28;20471;-64
2023/11/20 04:23:10;;;;;;;5.70;2.30;;;11.40;99.90;;;;;;5092670;28;20538;-64
2023/11/20 04:25:37;;;;;;;4.93;2.43;;;11.40;99.90;;;;;;5092782;28;20443;-63
2023/11/20 04:28:04;;;;;;;5.80;2.63;;;11.30;99.90;;;;;;5092377;28;21005;-64
2023/11/20 04:30:33;;;;;;;8.73;2.00;;;11.40;99.90;;;;;;5092416;28;20473;-64
2023/11/20 04:32:59;;;;;;;4.10;1.87;;;11.40;99.90;;;;;;5092426;28;20443;-64
2023/11/20 04:35:26;;;;;;;6.87;2.20;;;11.40;99.90;;;;;;5092297;28;20453;-64
2023/11/20 04:37:53;;;;;;;8.13;2.17;;;11.40;99.90;;;;;;5092352;28;20457;-64
2023/11/20 04:40:20;;;;;;;6.00;2.13;;;11.40;99.90;;;;;;5092626;28;20470;-63
2023/11/20 04:42:47;;;;;;;4.43;3.30;;;11.40;99.90;;;;;;5092319;28;20446;-64
2023/11/20 04:45:14;;;;;;;4.03;1.97;;;11.40;99.90;;;;;;5092076;28;20963;-64
2023/11/20 04:47:42;;;;;;;5.83;2.47;;;11.40;99.90;;;;;;5091782;28;20478;-64
2023/11/20 04:50:10;;;;;;;3.03;1.87;;;11.40;99.90;;;;;;5092067;28;20467;-64
2023/11/20 04:52:37;;;;;;;2.63;1.47;;;11.40;99.90;;;;;;5092353;28;20447;-64
2023/11/20 04:55:04;;;;;;;4.13;1.97;;;11.40;99.90;;;;;;5092103;28;20933;-64
2023/11/20 04:57:31;;;;;;;6.10;3.53;;;11.40;99.90;;;;;;5092004;28;20439;-64
2023/11/20 05:00:00;;;;;;;6.40;2.27;;;11.40;99.90;;;;;;5091968;28;20550;-64
2023/11/20 05:02:28;;;;;;;6.30;2.13;;;11.40;99.90;;;;;;5091941;28;20954;-63
2023/11/20 05:04:56;;;;;;;6.47;2.67;;;11.40;99.90;;;;;;5092418;28;20454;-64
2023/11/20 05:07:23;;;;;;;3.07;1.80;;;11.40;99.90;;;;;;5091893;28;20918;-64
2023/11/20 05:09:50;;;;;;;4.93;2.20;;;11.40;99.90;;;;;;5091946;28;20546;-63
2023/11/20 05:12:17;;;;;;;8.83;1.70;;;11.40;99.90;;;;;;5092024;28;20466;-63
2023/11/20 05:14:44;;;;;;;3.53;2.20;;;11.40;99.90;;;;;;5091744;28;21035;-64
2023/11/20 05:17:11;;;;;;;1.63;1.53;;;11.40;99.90;;;;;;5091726;28;20443;-64
2023/11/20 05:19:38;;;;;;;4.80;1.90;;;11.40;99.90;;;;;;5091942;28;20475;-64
2023/11/20 05:22:06;;;;;;;6.67;2.10;;;11.30;99.90;;;;;;5091950;28;20479;-64
2023/11/20 05:24:34;;;;;;;4.30;2.13;;;11.30;99.90;;;;;;5092078;28;20836;-64
2023/11/20 05:27:01;;;;;;;3.83;1.83;;;11.40;99.90;;;;;;5094098;28;20446;-63
2023/11/20 05:29:28;;;;;;;3.90;2.60;;;11.40;99.90;;;;;;5095818;28;20510;-63
2023/11/20 05:31:55;;;;;;;4.67;1.90;;;11.40;99.90;;;;;;5096045;28;20533;-64
2023/11/20 05:34:22;;;;;;;3.30;1.43;;;11.40;99.90;;;;;;5096220;28;20453;-63
2023/11/20 05:36:50;;;;;;;6.10;2.30;;;11.40;99.90;;;;;;5095616;28;20439;-64
2023/11/20 05:39:18;;;;;;;5.13;2.00;;;11.40;99.90;;;;;;5095927;28;20467;-64
2023/11/20 05:41:45;;;;;;;7.13;2.73;;;11.40;99.90;;;;;;5095929;28;20447;-64
2023/11/20 05:44:13;;;;;;;2.20;2.00;;;11.40;99.90;;;;;;5096230;28;20451;-64
2023/11/20 05:46:39;;;;;;;2.80;1.80;;;11.40;99.90;;;;;;5095545;28;20456;-64
2023/11/20 05:49:07;;;;;;;2.67;1.47;;;11.40;99.90;;;;;;5095735;28;20848;-64
2023/11/20 05:51:34;;;;;;;15.13;3.97;;;11.40;99.90;;;;;;5095898;28;20449;-64
2023/11/20 05:54:01;;;;;;;3.07;1.47;;;11.40;99.90;;;;;;5095121;28;20531;-64
2023/11/20 05:56:31;;;;;;;4.20;1.83;;;11.40;99.90;;;;;;5095329;28;20537;-63
2023/11/20 05:58:57;;;;;;;2.37;2.20;;;11.40;99.90;;;;;;5095726;28;20439;-63
2023/11/20 06:01:26;;;;;;;3.53;1.90;;;11.40;99.90;;;;;;5095383;28;20439;-64
2023/11/20 06:03:52;;;;;;;6.70;2.27;;;11.40;99.90;;;;;;5095631;28;20447;-64
2023/11/20 06:06:20;;;;;;;4.53;2.00;;;11.40;99.90;;;;;;5095196;28;20447;-63
2023/11/20 06:08:48;;;;;;;8.63;2.93;;;11.40;99.90;;;;;;5095172;28;20493;-64
2023/11/20 06:11:20;;;;;;;5.60;2.10;;;11.40;99.90;;;;;;5095557;28;20832;-64
2023/11/20 06:13:49;;;;;;;2.93;1.60;;;11.40;99.90;;;;;;5095618;28;20445;-63
2023/11/20 06:16:16;;;;;;;7.63;1.80;;;11.40;99.90;;;;;;5094826;28;20453;-64
2023/11/20 06:18:43;;;;;;;3.17;2.10;;;11.40;99.90;;;;;;5095104;28;20537;-64
2023/11/20 06:21:10;;;;;;;6.17;2.57;;;11.40;99.90;;;;;;5095004;28;20554;-64
2023/11/20 06:23:37;;;;;;;4.10;1.63;;;11.40;99.90;;;;;;5095123;28;20460;-64
2023/11/20 06:26:04;;;;;;;2.70;1.60;;;11.40;99.90;;;;;;5094903;28;20449;-64
2023/11/20 06:28:31;;;;;;;5.30;2.80;;;11.40;99.90;;;;;;5095082;28;20486;-64
2023/11/20 06:30:59;;;;;;;10.03;2.47;;;11.40;99.90;;;;;;5094723;28;20466;-64
2023/11/20 06:33:26;;;;;;;4.63;3.63;;;11.30;99.90;;;;;;5094647;28;20478;-64
2023/11/20 06:35:53;;;;;;;3.97;2.13;;;11.30;99.90;;;;;;5094594;28;20993;-64
2023/11/20 06:38:20;;;;;;;3.33;2.10;;;11.40;99.90;;;;;;5093869;28;20427;-64
2023/11/20 06:40:46;;;;;;;6.57;2.13;;;11.30;99.90;;;;;;5094327;28;20469;-64
2023/11/20 06:43:13;;;;;;;10.80;3.30;;;11.40;99.90;;;;;;5094760;28;20453;-64
2023/11/20 06:45:40;;;;;;;3.27;2.00;;;11.40;99.90;;;;;;5094359;28;20453;-63
2023/11/20 06:48:08;;;;;;;3.87;1.73;;;11.30;99.90;;;;;;5094302;28;20506;-64
2023/11/20 06:50:35;;;;;;;2.23;1.53;;;11.30;99.90;;;;;;5094506;28;20468;-64
2023/11/20 06:53:04;;;;;;;3.40;1.60;;;11.20;99.90;;;;;;5094733;28;20447;-64
2023/11/20 06:55:31;;;;;;;2.47;1.80;;;11.20;99.90;;;;;;5094354;28;20475;-64
2023/11/20 06:57:58;;;;;;;5.13;2.03;;;11.10;99.90;;;;;;5093911;28;20442;-64
2023/11/20 07:00:25;;;;;;;4.30;2.10;;;11.10;99.90;;;;;;5093891;28;20554;-64
2023/11/20 07:02:52;;;;;;;3.87;2.30;;;11.00;99.90;;;;;;5093958;28;20447;-64
2023/11/20 07:05:20;;;;;;;9.83;2.73;;;11.00;99.90;;;;;;5093990;28;20990;-64
2023/11/20 07:07:53;;;;;;;4.00;1.87;;;11.00;99.90;;;;;;5093961;28;21216;-64
2023/11/20 07:10:23;;;;;;;4.17;1.83;;;10.90;99.90;;;;;;5093845;28;20504;-64
2023/11/20 07:12:50;;;;;;;5.07;2.40;;;10.90;99.90;;;;;;5093843;28;20477;-64
2023/11/20 07:15:17;;;;;;;5.17;1.60;;;10.90;99.90;;;;;;5093716;28;20478;-64
2023/11/20 07:17:44;;;;;;;6.00;2.10;;;10.90;99.90;;;;;;5093291;28;20526;-64
2023/11/20 07:20:12;;;;;;;8.90;2.57;;;10.90;99.90;;;;;;5093740;28;20481;-64
2023/11/20 07:22:40;;;;;;;7.10;2.00;;;10.90;99.90;;;;;;5093771;28;20457;-64
2023/11/20 07:25:08;;;;;;;2.80;2.60;;;10.90;99.90;;;;;;5093677;28;20446;-64
2023/11/20 07:27:36;;;;;;;4.30;2.00;;;10.90;99.90;;;;;;5093344;28;20534;-64
2023/11/20 07:30:06;;;;;;;5.00;3.47;;;10.90;99.90;;;;;;5093496;28;20471;-64
2023/11/20 07:32:33;;;;;;;4.80;2.10;;;10.90;99.90;;;;;;5093555;28;20447;-63
2023/11/20 07:35:00;;;;;;;6.30;2.13;;;10.90;99.90;;;;;;5093510;28;20534;-64
2023/11/20 07:37:27;;;;;;;4.33;2.10;;;10.90;99.90;;;;;;5093031;28;20541;-64
2023/11/20 07:39:55;;;;;;;6.10;2.20;;;10.90;99.90;;;;;;5093307;28;20463;-64
2023/11/20 07:42:22;;;;;;;2.70;1.70;;;10.90;99.90;;;;;;5093339;28;20957;-64
2023/11/20 07:44:49;;;;;;;2.67;2.20;;;10.90;99.90;;;;;;5093451;28;20443;-64
2023/11/20 07:47:16;;;;;;;4.60;3.10;;;11.00;99.90;;;;;;5093209;28;20457;-64
2023/11/20 07:49:43;;;;;;;3.80;2.00;;;11.00;99.90;;;;;;5092495;28;20860;-64
2023/11/20 07:52:10;;;;;;;4.43;2.20;;;11.00;99.90;;;;;;5093262;28;20796;-64
2023/11/20 07:54:37;;;;;;;4.67;2.10;;;11.00;99.90;;;;;;5093012;28;20884;-64
2023/11/20 07:57:07;;;;;;;2.50;2.00;;;11.00;99.90;;;;;;5092750;28;20443;-64
2023/11/20 07:59:34;;;;;;;1.97;1.87;;;11.00;99.90;;;;;;5092862;28;20467;-64
2023/11/20 08:02:01;;;;;;;2.87;2.20;;;11.00;99.90;;;;;;5092965;28;20941;-64
2023/11/20 08:04:28;;;;;;;9.60;2.50;;;11.00;99.90;;;;;;5093018;28;20451;-64
2023/11/20 08:06:55;;;;;;;2.30;2.10;;;11.10;99.90;;;;;;5092535;28;20447;-64
2023/11/20 08:09:22;;;;;;;1.70;1.60;;;11.10;99.90;;;;;;5091355;28;20491;-64
2023/11/20 08:11:48;;;;;;;5.50;2.23;;;11.10;99.90;;;;;;5092267;28;20478;-64
2023/11/20 08:14:18;;;;;;;4.67;1.90;;;11.10;99.90;;;;;;5091650;28;20455;-64
2023/11/20 08:16:46;;;;;;;6.37;2.57;;;11.10;99.90;;;;;;5092354;28;20980;-64
2023/11/20 08:19:14;;;;;;;3.43;2.20;;;11.10;99.90;;;;;;5091404;28;20830;-64
2023/11/20 08:21:41;;;;;;;7.93;2.50;;;11.10;99.90;;;;;;5087949;28;20440;-64
2023/11/20 08:24:11;;;;;;;6.27;2.93;;;11.10;99.90;;;;;;5091516;28;20459;-64
2023/11/20 08:26:38;;;;;;;4.37;2.20;;;11.10;99.90;;;;;;5092024;28;20530;-64
2023/11/20 08:29:06;;;;;;;5.57;3.77;;;11.20;99.90;;;;;;5109383;22;20503;-63
2023/11/20 08:31:36;;;;;;;3.73;3.33;;;11.20;99.90;;;;;;5071903;28;20466;-64
2023/11/20 08:34:04;;;;;;;2.77;1.60;;;11.20;99.90;;;;;;5069607;28;20458;-65
2023/11/20 08:36:31;;;;;;;4.73;2.83;;;11.20;99.90;;;;;;5062797;28;21041;-64
2023/11/20 08:38:59;;;;;;;6.87;2.20;;;11.30;99.90;;;;;;5069351;28;20822;-65
2023/11/20 08:41:27;;;;;;;8.87;2.47;;;11.30;99.90;;;;;;5067534;28;20448;-65
2023/11/20 08:43:53;;;;;;;7.10;2.13;;;11.30;99.90;;;;;;5062655;28;20790;-65
2023/11/20 08:46:20;;;;;;;3.93;2.20;;;11.40;99.90;;;;;;5069176;28;20480;-65
2023/11/20 08:48:48;;;;;;;6.17;2.50;;;11.40;99.90;;;;;;5070427;28;20843;-64
2023/11/20 08:51:15;;;;;;;3.03;1.53;;;11.40;99.90;;;;;;5057821;28;20543;-65
2023/11/20 08:53:42;;;;;;;3.37;1.33;;;11.50;99.90;;;;;;5061419;28;20969;-64
2023/11/20 08:56:10;;;;;;;2.20;2.00;;;11.50;99.90;;;;;;5068779;28;20462;-64
2023/11/20 08:58:38;;;;;;;3.93;1.57;;;11.50;99.90;;;;;;5067350;28;20445;-64
2023/11/20 09:01:05;;;;;;;3.80;2.60;;;11.50;99.90;;;;;;5061190;28;20456;-64
2023/11/20 09:03:31;;;;;;;2.93;1.87;;;11.40;99.90;;;;;;5062401;28;20854;-64
2023/11/20 09:06:00;;;;;;;4.10;2.60;;;11.40;99.90;;;;;;5067069;28;20521;-64
2023/11/20 09:08:27;;;;;;;3.27;1.83;;;11.30;99.90;;;;;;5061076;28;20575;-64
2023/11/20 09:10:54;;;;;;;4.53;3.10;;;11.30;99.90;;;;;;5068386;28;20460;-64
2023/11/20 09:13:20;;;;;;;2.33;1.70;;;11.30;99.90;;;;;;5067148;28;20544;-64
2023/11/20 09:15:47;;;;;;;2.90;1.90;;;11.30;99.90;;;;;;5066634;28;20454;-64
2023/11/20 09:18:14;;;;;;;1.70;1.60;;;11.20;99.90;;;;;;5061293;28;20949;-63
2023/11/20 09:20:41;;;;;;;2.47;1.63;;;11.20;99.90;;;;;;5067314;28;20464;-64
2023/11/20 09:23:09;;;;;;;1.93;1.83;;;11.10;99.90;;;;;;5067786;28;20444;-64
2023/11/20 09:25:36;;;;;;;2.97;1.73;;;11.10;99.90;;;;;;5063695;28;20447;-63
2023/11/20 09:28:04;;;;;;;2.27;1.90;;;11.10;99.90;;;;;;5053849;28;20455;-64
2023/11/20 09:30:31;;;;;;;2.93;1.70;;;11.10;99.90;;;;;;5062560;28;20468;-63
2023/11/20 09:32:59;;;;;;;3.00;2.67;;;11.10;99.90;;;;;;5068394;28;20809;-63
2023/11/20 09:35:26;;;;;;;1.73;1.50;;;11.10;99.90;;;;;;5062525;28;20522;-63
2023/11/20 09:37:53;;;;;;;2.90;1.47;;;11.10;99.90;;;;;;5053456;28;20524;-63
2023/11/20 09:40:22;;;;;;;2.30;1.40;;;11.10;99.90;;;;;;5066387;28;20500;-63
2023/11/20 09:42:50;;;;;;;3.53;1.53;;;11.00;99.90;;;;;;5056444;28;20471;-63
2023/11/20 09:45:36;;;;;;;6.40;2.67;;;11.00;99.90;;;;;;5061102;28;20436;-62
2023/11/20 09:48:03;;;;;;;1.90;1.50;;;11.10;99.90;;;;;;5067889;28;20457;-62
2023/11/20 09:50:30;;;;;;;5.93;2.10;;;11.10;99.90;;;;;;5054886;28;20485;-62
2023/11/20 09:52:57;;;;;;;1.97;1.87;;;11.10;99.90;;;;;;5065303;28;20965;-63
2023/11/20 09:55:26;;;;;;;2.30;1.50;;;11.20;99.90;;;;;;5048432;28;20527;-63
2023/11/20 09:57:53;;;;;;;3.50;1.90;;;11.20;99.90;;;;;;5065415;28;20530;-62
2023/11/20 10:00:22;;;;;;;3.27;1.80;;;11.30;99.90;;;;;;5052630;28;20444;-64
2023/11/20 10:02:49;;;;;;;1.50;1.40;;;11.30;99.90;;;;;;5061767;28;20444;-64
2023/11/20 10:05:19;;;;;;;3.00;1.77;;;11.30;99.90;;;;;;5060007;28;20462;-64
2023/11/20 10:07:48;;;;;;;3.63;1.77;;;11.50;99.90;;;;;;5053729;28;20524;-64
2023/11/20 10:10:17;;;;;;;2.43;1.40;;;11.50;99.90;;;;;;5064323;28;20937;-64
2023/11/20 10:12:47;;;;;;;3.97;2.30;;;11.60;99.90;;;;;;5055743;28;20452;-64
2023/11/20 10:15:14;;;;;;;2.83;1.47;;;11.70;99.90;;;;;;5071051;28;20504;-63
2023/11/20 10:17:41;;;;;;;5.80;3.10;;;11.80;99.90;;;;;;5056717;28;20437;-64
2023/11/20 10:20:09;;;;;;;2.37;2.27;;;11.80;99.90;;;;;;5068399;28;20455;-65
2023/11/20 10:22:37;;;;;;;6.97;2.00;;;11.90;99.90;;;;;;5057734;28;20436;-64
2023/11/20 10:25:05;;;;;;;4.00;1.67;;;11.90;99.90;;;;;;5067139;28;20902;-64
2023/11/20 10:27:32;;;;;;;1.83;1.73;;;11.90;99.90;;;;;;5067244;28;20459;-64
2023/11/20 10:30:00;;;;;;;1.67;1.57;;;11.90;99.90;;;;;;5064095;28;20491;-64
2023/11/20 10:32:27;;;;;;;2.63;2.43;;;11.90;99.90;;;;;;5068532;28;20450;-65
2023/11/20 10:35:13;;;;;;;3.83;2.63;;;11.80;99.90;;;;;;5064375;28;20447;-64
2023/11/20 10:37:52;;;;;;;6.40;2.97;;;11.90;99.90;;;;;;5057603;28;20437;-62
2023/11/20 10:40:19;;;;;;;2.40;2.20;;;12.10;99.90;;;;;;5056232;28;20463;-63
2023/11/20 10:42:46;;;;;;;1.90;1.10;;;12.20;99.90;;;;;;5065640;28;20951;-63
2023/11/20 10:45:15;;;;;;;6.03;2.77;;;12.30;99.90;;;;;;5063932;28;20451;-65
2023/11/20 10:47:43;;;;;;;2.63;1.50;;;12.40;99.90;;;;;;5057761;28;20940;-64
2023/11/20 10:50:12;;;;;;;4.80;1.90;;;12.40;99.90;;;;;;5069004;28;20479;-65
2023/11/20 10:52:41;;;;;;;2.00;1.80;;;12.40;99.90;;;;;;5058862;28;20448;-64
2023/11/20 10:55:12;;;;;;;2.17;1.30;;;12.50;99.90;;;;;;5062246;28;20463;-64
2023/11/20 10:57:39;;;;;;;2.00;1.80;;;12.60;99.90;;;;;;5067074;28;20448;-64
2023/11/20 11:00:10;;;;;;;3.20;2.77;;;12.60;99.90;;;;;;5056022;28;20548;-64
2023/11/20 11:02:41;;;;;;;1.90;1.77;;;12.60;99.90;;;;;;5066629;28;20445;-64
2023/11/20 11:05:09;;;;;;;1.70;1.60;;;12.60;99.90;;;;;;5062677;28;20946;-64
2023/11/20 11:07:39;;;;;;;3.80;3.00;;;12.50;99.90;;;;;;5058158;28;20545;-63
2023/11/20 11:10:10;;;;;;;2.33;1.20;;;12.50;99.90;;;;;;5068967;28;20575;-63
2023/11/20 11:12:40;;;;;;;3.57;1.67;;;12.50;99.90;;;;;;5058517;28;20444;-64
2023/11/20 11:15:08;;;;;;;2.73;1.60;;;12.50;99.90;;;;;;5069563;28;20526;-64
2023/11/20 11:17:44;;;;;;;1.67;1.53;;;12.50;99.90;;;;;;5066087;28;20896;-63
2023/11/20 11:20:16;;;;;;;2.00;1.77;;;12.40;99.90;;;;;;5069549;28;20455;-63
2023/11/20 11:22:52;;;;;;;2.20;1.90;;;12.40;99.90;;;;;;5058893;28;20498;-64
2023/11/20 11:25:25;;;;;;;2.23;1.77;;;12.30;99.90;;;;;;5059243;28;20498;-64
2023/11/20 11:27:56;;;;;;;3.63;1.63;;;12.20;99.90;;;;;;5068194;28;20813;-64
2023/11/20 11:30:25;;;;;;;3.27;2.20;;;12.10;99.90;;;;;;5055971;28;20479;-63
2023/11/20 11:33:28;;;;;;;3.63;1.80;;;12.10;99.90;;;;;;5064228;28;20445;-64
2023/11/20 11:36:27;;;;;;;2.23;2.03;;;12.10;99.90;;;;;;5065674;28;20458;-63
2023/11/20 11:39:05;;;;;;;2.37;2.10;;;12.00;99.90;;;;;;5057420;28;20902;-64
2023/11/20 11:41:53;;;;;;;3.50;2.17;;;11.90;99.90;;;;;;5058530;28;20444;-64
2023/11/20 11:44:37;;;;;;;4.60;2.30;;;11.80;99.90;;;;;;5055791;28;20950;-63
2023/11/20 11:47:08;;;;;;;5.70;2.13;;;11.70;99.90;;;;;;5061736;28;20440;-63
2023/11/20 11:49:40;;;;;;;2.40;2.13;;;11.60;99.90;;;;;;5065511;28;20487;-63
2023/11/20 11:52:08;;;;;;;10.53;5.67;;;11.50;99.90;;;;;;5055245;28;20473;-63
2023/11/20 11:54:35;;;;;;;2.50;1.90;;;11.50;99.90;;;;;;5065695;28;20520;-63
2023/11/20 11:57:11;;;;;;;3.33;2.37;;;11.40;99.90;;;;;;5060490;28;21123;-63
2023/11/20 11:59:39;;;;;;;2.80;2.60;;;11.40;99.90;;;;;;5056753;28;20464;-63
2023/11/20 12:02:07;;;;;;;2.53;2.10;;;11.30;99.90;;;;;;5067839;28;20443;-63
2023/11/20 12:05:03;;;;;;;2.23;2.03;;;11.40;99.90;;;;;;5056725;28;20945;-64
2023/11/20 12:07:53;;;;;;;1.90;1.80;;;11.30;99.90;;;;;;5057460;28;21306;-64
2023/11/20 12:10:41;;;;;;;6.00;2.27;;;11.30;99.90;;;;;;5054867;28;20487;-64
2023/11/20 12:13:10;;;;;;;2.20;2.10;;;11.30;99.90;;;;;;5060989;28;20445;-63
2023/11/20 12:15:39;;;;;;;1.83;1.73;;;11.40;99.90;;;;;;5065142;28;20471;-64
2023/11/20 12:18:12;;;;;;;2.50;2.10;;;11.40;99.90;;;;;;5054353;28;20448;-63
2023/11/20 12:20:45;;;;;;;6.33;2.53;;;11.50;99.90;;;;;;5064972;28;20469;-63
2023/11/20 12:23:25;;;;;;;2.30;1.70;;;11.90;99.90;;;;;;5061817;28;21132;-64
2023/11/20 12:25:54;;;;;;;1.43;1.10;;;12.20;99.90;;;;;;5054043;28;20445;-63
2023/11/20 12:28:22;;;;;;;2.10;1.80;;;12.30;99.90;;;;;;5068370;28;20459;-62
2023/11/20 12:30:49;;;;;;;1.20;1.10;;;12.40;99.90;;;;;;5069981;28;20484;-63
2023/11/20 12:33:16;;;;;;;1.80;1.70;;;12.60;99.90;;;;;;5062359;28;20856;-63
2023/11/20 12:35:49;;;;;;;1.63;1.17;;;13.00;99.90;;;;;;5067941;28;20827;-63
2023/11/20 12:38:16;;;;;;;3.43;1.20;;;13.30;99.90;;;;;;5061379;28;20856;-63
2023/11/20 12:40:48;;;;;;;1.43;0.93;;;13.50;99.90;;;;;;5069626;28;20547;-62
2023/11/20 12:43:15;;;;;;;1.37;1.07;;;;;;;;;;5067544;28;20447;-63
2023/11/20 12:45:42;;;;;;;1.20;1.07;;;14.20;99.90;;;;;;5065685;28;20475;-63
2023/11/20 12:48:09;;;;;;;1.73;1.63;;;14.50;99.90;;;;;;5053755;28;20526;-62
2023/11/20 12:50:37;;;;;;;2.63;1.93;;;14.60;99.90;;;;;;5062491;28;20492;-62
2023/11/20 12:53:05;;;;;;;2.00;1.17;;;14.50;99.90;;;;;;5068295;28;20827;-62
2023/11/20 12:55:32;;;;;;;2.10;1.67;;;14.40;99.90;;;;;;5063709;28;20440;-63